Time;durP1;ratioP1;P1;durP2;ratioP2;P2;SDS_P1;SDS_P2;PMS_P1;PMS_P2;Temp;Humidity;BMP_temperature;BMP_pressure;BME280_temperature;BME280_humidity;BME280_pressure;Samples;Min_cycle;Max_cycle;Signal;HPM_P1;HPM_P2
2023/05/16 00:02:15;;;;;;;3.47;2.60;;;8.60;99.90;;;;;;5007848;28;20034;-74
2023/05/16 00:04:41;;;;;;;2.47;2.28;;;8.50;99.90;;;;;;5007489;28;20030;-74
2023/05/16 00:07:06;;;;;;;3.20;2.55;;;8.50;99.90;;;;;;5011671;28;20030;-75
2023/05/16 00:09:32;;;;;;;4.07;3.67;;;8.50;99.90;;;;;;5008363;28;20040;-74
2023/05/16 00:11:58;;;;;;;13.38;6.95;;;8.50;99.90;;;;;;5009459;28;20145;-75
2023/05/16 00:14:25;;;;;;;11.95;6.68;;;8.50;99.90;;;;;;5009686;28;20030;-75
2023/05/16 00:16:57;;;;;;;20.00;11.80;;;8.60;99.90;;;;;;5007364;28;20034;-75
2023/05/16 00:19:22;;;;;;;18.58;10.55;;;8.60;99.90;;;;;;5004182;28;20101;-74
2023/05/16 00:21:48;;;;;;;8.85;6.10;;;8.60;99.90;;;;;;5008043;28;20097;-74
2023/05/16 00:24:14;;;;;;;9.98;6.72;;;8.60;99.90;;;;;;4992836;28;20045;-75
2023/05/16 00:26:40;;;;;;;4.97;4.18;;;8.70;99.90;;;;;;5007350;28;20026;-74
2023/05/16 00:29:05;;;;;;;7.00;3.47;;;8.70;99.90;;;;;;5009792;28;20042;-74
2023/05/16 00:31:31;;;;;;;4.03;3.63;;;8.50;99.90;;;;;;5010326;28;20072;-74
2023/05/16 00:33:57;;;;;;;4.15;3.70;;;8.40;99.90;;;;;;5013382;28;20048;-73
2023/05/16 00:36:22;;;;;;;3.30;2.78;;;8.40;99.90;;;;;;5012212;28;20044;-73
2023/05/16 00:38:48;;;;;;;3.38;2.78;;;8.40;99.90;;;;;;5011612;28;20132;-74
2023/05/16 00:41:14;;;;;;;3.45;3.15;;;8.40;99.90;;;;;;5009563;28;20118;-73
2023/05/16 00:43:39;;;;;;;3.45;3.13;;;8.30;99.90;;;;;;5011038;28;20475;-74
2023/05/16 00:46:05;;;;;;;4.07;3.28;;;8.20;99.90;;;;;;5011813;28;20037;-74
2023/05/16 00:48:31;;;;;;;6.25;3.80;;;8.20;99.90;;;;;;5009068;28;20054;-74
2023/05/16 00:50:57;;;;;;;8.77;4.30;;;8.20;99.90;;;;;;5009594;28;20397;-74
2023/05/16 00:53:24;;;;;;;6.13;4.65;;;8.40;99.90;;;;;;5009570;28;20034;-74
2023/05/16 00:55:50;;;;;;;7.32;4.45;;;8.40;99.90;;;;;;5009704;28;20032;-73
2023/05/16 00:58:17;;;;;;;4.68;3.97;;;8.40;99.90;;;;;;5011729;28;20045;-74
2023/05/16 01:00:46;;;;;;;5.32;4.25;;;8.40;99.90;;;;;;5008981;28;20046;-74
2023/05/16 01:03:11;;;;;;;4.22;3.83;;;8.40;99.90;;;;;;5010621;28;20120;-74
2023/05/16 01:05:37;;;;;;;3.80;3.33;;;8.40;99.90;;;;;;5011593;28;20121;-74
2023/05/16 01:08:03;;;;;;;5.88;3.38;;;8.20;99.90;;;;;;5010663;28;20057;-74
2023/05/16 01:10:40;;;;;;;3.80;3.50;;;8.30;99.90;;;;;;5009939;28;20076;-74
2023/05/16 01:13:22;;;;;;;5.57;3.58;;;8.30;99.90;;;;;;5009336;28;20033;-72
2023/05/16 01:16:02;;;;;;;4.75;3.72;;;8.30;99.90;;;;;;4995119;28;20034;-73
2023/05/16 01:18:53;;;;;;;5.20;3.55;;;8.30;99.90;;;;;;5010430;28;20033;-73
2023/05/16 01:21:50;;;;;;;4.22;3.55;;;8.30;99.90;;;;;;5008695;28;20561;-74
2023/05/16 01:24:43;;;;;;;4.05;3.65;;;8.30;99.90;;;;;;4991766;28;20046;-74
2023/05/16 01:27:10;;;;;;;4.15;3.42;;;8.20;99.90;;;;;;5003832;28;20038;-73
2023/05/16 01:29:36;;;;;;;4.60;3.43;;;8.10;99.90;;;;;;5011894;28;20108;-74
2023/05/16 01:32:01;;;;;;;4.15;3.40;;;8.10;99.90;;;;;;5012147;28;20391;-73
2023/05/16 01:34:27;;;;;;;4.28;3.03;;;8.00;99.90;;;;;;4992842;28;20038;-74
2023/05/16 01:37:05;;;;;;;4.38;3.25;;;7.80;99.90;;;;;;5011328;28;20030;-73
2023/05/16 01:39:45;;;;;;;4.97;4.10;;;7.70;99.90;;;;;;5008071;28;20535;-73
2023/05/16 01:42:15;;;;;;;4.10;3.70;;;7.70;99.90;;;;;;5012640;28;20498;-73
2023/05/16 01:44:52;;;;;;;4.32;3.10;;;7.70;99.90;;;;;;5010771;28;20052;-73
2023/05/16 01:47:20;;;;;;;5.63;3.95;;;7.80;99.90;;;;;;5009715;28;20037;-74
2023/05/16 01:50:16;;;;;;;3.60;3.30;;;7.80;99.90;;;;;;5008550;28;20053;-74
2023/05/16 01:52:47;;;;;;;4.63;3.92;;;7.80;99.90;;;;;;5000719;28;20065;-73
2023/05/16 01:55:41;;;;;;;6.15;3.90;;;7.70;99.90;;;;;;5011975;28;20037;-74
2023/05/16 01:58:09;;;;;;;6.55;3.22;;;7.50;99.90;;;;;;5011335;28;20033;-74
2023/05/16 02:00:34;;;;;;;3.58;3.00;;;7.40;99.90;;;;;;5009589;28;20034;-74
2023/05/16 02:03:00;;;;;;;2.90;2.70;;;7.30;99.90;;;;;;5005767;28;20040;-74
2023/05/16 02:05:25;;;;;;;3.97;2.97;;;7.30;99.90;;;;;;5009500;28;20037;-74
2023/05/16 02:07:52;;;;;;;4.72;3.17;;;7.30;99.90;;;;;;5008862;28;20041;-75
2023/05/16 02:10:18;;;;;;;3.35;3.05;;;7.20;99.90;;;;;;5011200;28;20057;-74
2023/05/16 02:12:44;;;;;;;4.00;3.05;;;7.20;99.90;;;;;;4975336;28;20126;-74
2023/05/16 02:15:09;;;;;;;4.05;3.65;;;7.20;99.90;;;;;;4995655;28;20117;-74
2023/05/16 02:17:35;;;;;;;12.73;3.67;;;7.30;99.90;;;;;;5008054;28;20045;-74
2023/05/16 02:20:05;;;;;;;13.15;4.68;;;7.20;99.90;;;;;;5005972;28;20038;-75
2023/05/16 02:22:32;;;;;;;11.07;3.00;;;7.00;99.90;;;;;;5008604;28;20029;-74
2023/05/16 02:25:01;;;;;;;2.72;2.30;;;6.90;99.90;;;;;;4990928;28;20026;-73
2023/05/16 02:27:26;;;;;;;2.22;2.03;;;6.90;99.90;;;;;;5005649;28;20026;-73
2023/05/16 02:29:52;;;;;;;4.50;2.72;;;7.00;99.90;;;;;;5009922;28;20034;-74
2023/05/16 02:32:17;;;;;;;2.63;2.42;;;7.20;99.90;;;;;;5005675;28;20049;-74
2023/05/16 02:34:43;;;;;;;4.43;2.80;;;7.20;99.90;;;;;;5008164;28;20061;-73
2023/05/16 02:37:08;;;;;;;3.70;2.97;;;7.20;99.90;;;;;;5008155;28;20030;-74
2023/05/16 02:39:34;;;;;;;4.10;3.30;;;7.30;99.90;;;;;;5004243;28;20367;-74
2023/05/16 02:42:00;;;;;;;3.83;2.70;;;7.30;99.90;;;;;;5007139;28;20026;-73
2023/05/16 02:44:25;;;;;;;4.85;3.05;;;7.30;99.90;;;;;;5009821;28;20026;-73
2023/05/16 02:46:51;;;;;;;5.32;3.17;;;7.10;99.90;;;;;;5008044;28;20033;-74
2023/05/16 02:49:16;;;;;;;3.03;2.72;;;7.00;99.90;;;;;;5005481;28;20050;-74
2023/05/16 02:51:42;;;;;;;44.03;5.72;;;6.90;99.90;;;;;;5006074;28;20752;-73
2023/05/16 02:54:08;;;;;;;7.32;3.22;;;6.70;99.90;;;;;;5007846;28;20113;-74
2023/05/16 02:56:34;;;;;;;3.80;2.40;;;6.60;99.90;;;;;;5007040;28;20050;-73
2023/05/16 02:59:00;;;;;;;2.80;2.50;;;6.50;99.90;;;;;;5005538;28;20109;-73
2023/05/16 03:01:26;;;;;;;3.40;2.63;;;6.50;99.90;;;;;;5002665;28;20509;-73
2023/05/16 03:03:52;;;;;;;3.30;2.90;;;6.60;99.90;;;;;;5005893;28;20034;-73
2023/05/16 03:06:17;;;;;;;5.15;3.83;;;6.70;99.90;;;;;;5007462;28;20041;-73
2023/05/16 03:08:43;;;;;;;3.92;3.28;;;6.70;99.90;;;;;;5006710;28;20041;-74
2023/05/16 03:11:08;;;;;;;3.45;3.15;;;6.50;99.90;;;;;;5008824;28;20073;-73
2023/05/16 03:13:34;;;;;;;4.32;3.17;;;6.50;99.90;;;;;;4987931;28;20030;-74
2023/05/16 03:16:00;;;;;;;2.90;2.70;;;6.40;99.90;;;;;;5003689;28;20045;-73
2023/05/16 03:18:25;;;;;;;3.38;3.08;;;6.50;99.90;;;;;;5005814;28;20060;-74
2023/05/16 03:20:51;;;;;;;2.90;2.70;;;6.50;99.90;;;;;;5007359;28;20041;-74
2023/05/16 03:23:18;;;;;;;4.10;3.20;;;6.50;99.90;;;;;;5002869;28;20030;-74
2023/05/16 03:25:45;;;;;;;3.40;3.10;;;6.60;99.90;;;;;;5004919;28;20478;-73
2023/05/16 03:28:10;;;;;;;3.65;3.20;;;6.60;99.90;;;;;;5006867;28;20034;-74
2023/05/16 03:30:36;;;;;;;3.67;3.05;;;6.60;99.90;;;;;;5007396;28;20057;-73
2023/05/16 03:33:03;;;;;;;4.93;3.28;;;6.60;99.90;;;;;;5011076;28;20471;-74
2023/05/16 03:35:33;;;;;;;4.88;3.47;;;6.70;99.90;;;;;;5009287;28;20033;-75
2023/05/16 03:37:59;;;;;;;6.90;3.97;;;6.70;99.90;;;;;;5004277;28;20082;-73
2023/05/16 03:40:24;;;;;;;4.65;3.50;;;6.80;99.90;;;;;;5007020;28;20026;-75
2023/05/16 03:42:50;;;;;;;5.72;4.30;;;6.80;99.90;;;;;;5008464;28;20030;-74
2023/05/16 03:45:16;;;;;;;5.13;4.15;;;6.80;99.90;;;;;;4989435;28;20037;-73
2023/05/16 03:47:42;;;;;;;5.10;3.63;;;6.90;99.90;;;;;;5007689;28;20038;-74
2023/05/16 03:50:08;;;;;;;4.65;3.92;;;6.90;99.90;;;;;;5008703;28;20061;-73
2023/05/16 03:52:34;;;;;;;5.25;4.40;;;6.90;99.90;;;;;;5007116;28;20042;-73
2023/05/16 03:55:02;;;;;;;4.22;3.83;;;6.90;99.90;;;;;;4990332;28;20037;-73
2023/05/16 03:57:31;;;;;;;3.83;3.43;;;6.90;99.90;;;;;;5009666;28;20052;-73
2023/05/16 03:59:56;;;;;;;;;;;6.90;99.90;;;;;;5008336;28;20312;-74
2023/05/16 04:02:22;;;;;;;3.78;2.85;;;6.70;99.90;;;;;;5006345;28;19913;-73
2023/05/16 04:04:48;;;;;;;3.53;3.00;;;6.50;99.90;;;;;;5010744;28;20034;-73
2023/05/16 04:07:14;;;;;;;3.33;3.03;;;6.50;99.90;;;;;;5011221;28;20030;-73
2023/05/16 04:09:39;;;;;;;3.17;2.53;;;6.40;99.90;;;;;;5012811;28;20034;-74
2023/05/16 04:12:05;;;;;;;3.55;2.75;;;6.50;99.90;;;;;;5008728;28;20897;-74
2023/05/16 04:14:32;;;;;;;3.58;3.00;;;6.50;99.90;;;;;;4992418;28;20033;-75
2023/05/16 04:16:59;;;;;;;2.97;2.67;;;6.60;99.90;;;;;;5006216;28;20065;-74
2023/05/16 04:19:24;;;;;;;4.20;2.90;;;6.60;99.90;;;;;;5009508;28;20557;-74
2023/05/16 04:21:51;;;;;;;3.00;2.70;;;6.50;99.90;;;;;;5008525;28;20050;-75
2023/05/16 04:24:17;;;;;;;4.85;3.05;;;6.50;99.90;;;;;;5006644;28;20033;-74
2023/05/16 04:26:43;;;;;;;4.90;3.70;;;6.60;99.90;;;;;;5010520;28;20033;-73
2023/05/16 04:29:08;;;;;;;5.25;4.03;;;6.60;99.90;;;;;;5010966;28;20030;-74
2023/05/16 04:31:35;;;;;;;4.88;3.67;;;6.70;99.90;;;;;;5007932;28;20050;-73
2023/05/16 04:34:01;;;;;;;4.50;3.70;;;6.80;99.90;;;;;;5009639;28;20049;-74
2023/05/16 04:36:28;;;;;;;4.72;3.60;;;6.90;99.90;;;;;;5009628;28;20665;-74
2023/05/16 04:38:55;;;;;;;4.35;3.35;;;7.00;99.90;;;;;;5008509;28;20030;-74
2023/05/16 04:41:22;;;;;;;5.15;3.78;;;7.00;99.90;;;;;;5008646;28;20066;-74
2023/05/16 04:43:48;;;;;;;4.57;3.75;;;7.00;99.90;;;;;;5006723;28;20076;-74
2023/05/16 04:46:16;;;;;;;7.00;4.15;;;7.10;99.90;;;;;;5008866;28;20053;-75
2023/05/16 04:48:42;;;;;;;;;;;7.20;99.90;;;;;;5013293;28;20054;-74
2023/05/16 04:51:08;;;;;;;4.75;3.92;;;7.20;99.90;;;;;;5005955;28;19943;-73
2023/05/16 04:53:36;;;;;;;4.28;3.85;;;7.20;99.90;;;;;;5010978;28;20022;-74
2023/05/16 04:56:03;;;;;;;;;;;7.30;99.90;;;;;;5015224;28;20124;-74
2023/05/16 04:58:29;;;;;;;5.47;4.20;;;7.30;99.90;;;;;;5010224;28;19909;-74
2023/05/16 05:00:55;;;;;;;5.00;3.90;;;7.40;99.90;;;;;;5004945;28;20101;-73
2023/05/16 05:03:21;;;;;;;5.45;4.10;;;7.40;99.90;;;;;;5012002;28;20037;-73
2023/05/16 05:05:50;;;;;;;5.80;4.10;;;7.40;99.90;;;;;;5010434;28;20030;-74
2023/05/16 05:08:17;;;;;;;6.57;4.07;;;7.40;99.90;;;;;;4994349;28;20540;-74
2023/05/16 05:10:43;;;;;;;7.10;4.18;;;7.50;99.90;;;;;;5008484;28;20553;-76
2023/05/16 05:13:10;;;;;;;6.07;4.43;;;7.50;99.90;;;;;;5006113;28;20030;-74
2023/05/16 05:15:36;;;;;;;7.22;4.40;;;7.60;99.90;;;;;;5009433;28;20030;-74
2023/05/16 05:18:01;;;;;;;6.30;4.70;;;7.60;99.90;;;;;;5010235;28;20112;-74
2023/05/16 05:20:27;;;;;;;6.32;4.82;;;7.70;99.90;;;;;;5012314;28;20033;-74
2023/05/16 05:22:53;;;;;;;7.10;4.35;;;7.70;99.90;;;;;;5011713;28;20025;-74
2023/05/16 05:25:21;;;;;;;6.45;5.05;;;7.80;99.90;;;;;;5012418;28;20038;-73
2023/05/16 05:27:47;;;;;;;8.20;5.60;;;7.90;99.90;;;;;;5006575;28;20026;-74
2023/05/16 05:30:18;;;;;;;8.00;5.75;;;7.90;99.90;;;;;;5005820;28;20157;-74
2023/05/16 05:32:44;;;;;;;8.55;5.63;;;8.00;99.90;;;;;;5006823;28;20772;-73
2023/05/16 05:35:14;;;;;;;7.70;5.75;;;8.10;99.90;;;;;;5012469;28;20044;-73
2023/05/16 05:37:40;;;;;;;9.52;5.20;;;8.20;99.90;;;;;;5007375;28;20437;-74
2023/05/16 05:40:06;;;;;;;6.78;4.97;;;8.20;99.90;;;;;;5009798;28;20124;-75
2023/05/16 05:42:32;;;;;;;7.82;5.10;;;8.30;99.90;;;;;;5010189;28;20064;-74
2023/05/16 05:44:58;;;;;;;8.65;5.93;;;8.40;99.90;;;;;;5010608;28;20101;-75
2023/05/16 05:47:24;;;;;;;8.90;5.93;;;8.50;99.90;;;;;;4992333;28;20030;-75
2023/05/16 05:49:52;;;;;;;9.73;6.38;;;8.60;99.90;;;;;;5009717;28;20057;-74
2023/05/16 05:52:18;;;;;;;9.18;6.68;;;8.70;99.90;;;;;;5007863;28;20045;-74
2023/05/16 05:54:44;;;;;;;9.82;6.18;;;8.80;99.90;;;;;;5006990;28;20030;-74
2023/05/16 05:57:09;;;;;;;8.52;6.63;;;8.90;99.90;;;;;;5009556;28;20882;-74
2023/05/16 05:59:37;;;;;;;9.43;6.75;;;9.00;99.90;;;;;;5009550;28;20072;-74
2023/05/16 06:02:03;;;;;;;10.73;6.60;;;9.10;99.90;;;;;;5010622;28;20037;-74
2023/05/16 06:04:29;;;;;;;9.60;6.55;;;9.10;99.90;;;;;;5005901;28;20025;-74
2023/05/16 06:06:55;;;;;;;9.57;6.25;;;9.20;99.90;;;;;;4992872;28;20026;-74
2023/05/16 06:09:21;;;;;;;10.25;6.90;;;9.30;99.90;;;;;;5009065;28;20037;-74
2023/05/16 06:11:47;;;;;;;12.55;7.60;;;9.40;99.90;;;;;;5005443;28;20037;-74
2023/05/16 06:14:15;;;;;;;10.73;8.02;;;9.60;99.90;;;;;;5008695;28;20044;-75
2023/05/16 06:16:40;;;;;;;14.00;7.78;;;9.70;99.90;;;;;;4998284;28;20033;-74
2023/05/16 06:19:07;;;;;;;13.32;8.05;;;9.80;99.90;;;;;;5007677;28;21929;-73
2023/05/16 06:21:33;;;;;;;14.45;8.50;;;10.00;99.90;;;;;;5006364;28;20038;-75
2023/05/16 06:23:58;;;;;;;15.38;9.13;;;10.10;99.90;;;;;;4989244;28;20085;-74
2023/05/16 06:26:24;;;;;;;12.70;8.52;;;10.20;99.90;;;;;;5009463;28;20041;-74
2023/05/16 06:28:50;;;;;;;16.20;9.85;;;10.20;99.90;;;;;;5008776;28;20061;-74
2023/05/16 06:31:15;;;;;;;12.55;8.63;;;10.30;99.90;;;;;;5004299;28;20069;-74
2023/05/16 06:33:41;;;;;;;12.65;8.07;;;10.40;99.90;;;;;;4992646;28;20030;-75
2023/05/16 06:36:07;;;;;;;14.20;9.20;;;10.50;99.90;;;;;;4991901;28;20026;-74
2023/05/16 06:38:33;;;;;;;12.40;8.85;;;10.50;99.90;;;;;;4992754;28;20060;-73
2023/05/16 06:40:58;;;;;;;12.88;9.05;;;10.60;99.90;;;;;;4987280;28;20034;-74
2023/05/16 06:43:24;;;;;;;15.23;8.90;;;10.70;99.90;;;;;;5009186;28;20482;-75
2023/05/16 06:45:50;;;;;;;13.50;9.18;;;10.80;99.90;;;;;;5008906;28;20030;-73
2023/05/16 06:48:17;;;;;;;12.98;8.77;;;10.80;99.90;;;;;;5008084;28;20777;-74
2023/05/16 06:50:47;;;;;;;14.63;9.60;;;10.80;99.90;;;;;;5007905;28;20027;-74
2023/05/16 06:53:13;;;;;;;12.50;9.40;;;10.90;99.90;;;;;;5009527;28;20029;-74
2023/05/16 06:55:38;;;;;;;16.40;8.98;;;11.00;99.90;;;;;;5007105;28;20093;-74
2023/05/16 06:58:04;;;;;;;13.43;8.98;;;11.00;99.90;;;;;;5008631;28;20074;-74
2023/05/16 07:00:30;;;;;;;14.50;9.60;;;11.00;99.90;;;;;;5009369;28;20037;-73
2023/05/16 07:02:55;;;;;;;16.85;10.68;;;11.20;99.90;;;;;;5009792;28;20045;-74
2023/05/16 07:05:21;;;;;;;12.30;9.00;;;11.30;99.90;;;;;;5006806;28;20498;-74
2023/05/16 07:07:48;;;;;;;13.95;9.60;;;11.20;99.90;;;;;;4991988;28;20040;-74
2023/05/16 07:10:14;;;;;;;14.30;9.48;;;11.30;99.90;;;;;;5007756;28;20030;-74
2023/05/16 07:12:41;;;;;;;14.48;9.18;;;11.30;99.90;;;;;;5009064;28;20514;-74
2023/05/16 07:15:07;;;;;;;13.02;9.27;;;11.40;99.90;;;;;;5009159;28;20037;-74
2023/05/16 07:17:36;;;;;;;14.15;9.43;;;11.50;99.90;;;;;;4991858;28;20041;-74
2023/05/16 07:20:03;;;;;;;13.05;9.35;;;11.70;99.90;;;;;;5007711;28;20034;-74
2023/05/16 07:22:29;;;;;;;13.43;9.07;;;11.90;99.90;;;;;;5008885;28;20568;-74
2023/05/16 07:24:56;;;;;;;14.45;9.15;;;12.00;99.90;;;;;;5007784;28;20033;-74
2023/05/16 07:27:22;;;;;;;13.63;9.07;;;12.00;99.90;;;;;;5006778;28;20823;-73
2023/05/16 07:29:47;;;;;;;13.82;9.68;;;12.10;99.90;;;;;;5010411;28;20422;-74
2023/05/16 07:32:13;;;;;;;12.13;9.00;;;12.10;99.90;;;;;;4999695;28;20117;-74
2023/05/16 07:34:39;;;;;;;14.10;9.43;;;12.00;99.90;;;;;;5009497;28;20072;-74
2023/05/16 07:37:11;;;;;;;13.77;9.95;;;12.10;99.90;;;;;;4990986;28;20048;-74
2023/05/16 07:39:38;;;;;;;14.63;10.07;;;12.10;99.90;;;;;;5012473;28;20030;-74
2023/05/16 07:42:03;;;;;;;13.82;9.25;;;12.10;99.90;;;;;;5009044;28;20030;-74
2023/05/16 07:44:30;;;;;;;13.50;9.68;;;12.10;99.90;;;;;;5009232;28;20493;-75
2023/05/16 07:46:55;;;;;;;14.27;9.80;;;12.20;99.90;;;;;;5012216;28;20048;-74
2023/05/16 07:49:23;;;;;;;14.20;9.77;;;12.30;99.90;;;;;;5011316;28;20049;-75
2023/05/16 07:51:51;;;;;;;13.32;9.45;;;12.30;99.90;;;;;;5007431;28;20478;-75
2023/05/16 07:54:17;;;;;;;16.52;10.07;;;12.40;99.90;;;;;;5011681;28;20113;-75
2023/05/16 07:56:43;;;;;;;16.92;10.80;;;12.50;99.90;;;;;;5011204;28;20110;-75
2023/05/16 07:59:11;;;;;;;15.25;10.48;;;12.50;99.90;;;;;;5009792;28;20020;-75
2023/05/16 08:01:37;;;;;;;12.70;9.07;;;12.50;99.90;;;;;;5008270;28;20037;-74
2023/05/16 08:04:04;;;;;;;14.13;9.57;;;12.70;99.90;;;;;;5005740;28;20026;-75
2023/05/16 08:06:30;;;;;;;14.25;9.32;;;12.90;99.90;;;;;;5007028;28;20105;-75
2023/05/16 08:08:56;;;;;;;13.98;10.50;;;12.90;99.90;;;;;;5007881;28;20034;-75
2023/05/16 08:11:22;;;;;;;12.38;10.05;;;12.90;99.90;;;;;;5006516;28;20042;-75
2023/05/16 08:13:48;;;;;;;12.48;9.95;;;12.90;99.90;;;;;;4991482;28;20493;-74
2023/05/16 08:16:14;;;;;;;11.65;9.52;;;12.90;99.90;;;;;;5011033;28;20092;-75
2023/05/16 08:18:41;;;;;;;14.23;9.65;;;12.90;99.90;;;;;;5007342;28;20045;-74
2023/05/16 08:21:07;;;;;;;17.58;9.85;;;12.90;99.90;;;;;;4992038;28;20834;-74
2023/05/16 08:23:33;;;;;;;13.05;8.98;;;13.00;99.90;;;;;;5012073;28;20057;-74
2023/05/16 08:26:00;;;;;;;13.07;9.77;;;13.10;99.90;;;;;;5008830;28;20069;-74
2023/05/16 08:28:26;;;;;;;13.00;9.75;;;13.10;99.90;;;;;;5012052;28;20060;-75
2023/05/16 08:30:51;;;;;;;11.85;9.43;;;13.10;99.90;;;;;;4974522;28;20062;-75
2023/05/16 08:33:17;;;;;;;11.98;9.55;;;13.20;99.90;;;;;;5010224;28;20398;-73
2023/05/16 08:35:43;;;;;;;11.75;9.55;;;13.20;99.90;;;;;;5011373;28;20062;-74
2023/05/16 08:38:09;;;;;;;13.07;8.40;;;13.40;99.90;;;;;;5009411;28;20054;-75
2023/05/16 08:40:35;;;;;;;13.60;9.45;;;13.40;99.90;;;;;;5008384;28;20034;-75
2023/05/16 08:43:01;;;;;;;11.00;8.75;;;13.40;99.90;;;;;;5011553;28;20030;-75
2023/05/16 08:45:28;;;;;;;13.27;9.90;;;13.40;99.90;;;;;;5010789;28;20029;-74
2023/05/16 08:47:57;;;;;;;10.57;9.18;;;13.40;99.90;;;;;;5013279;28;20061;-74
2023/05/16 08:50:24;;;;;;;17.90;10.38;;;13.50;99.90;;;;;;5011603;28;20046;-74
2023/05/16 08:52:51;;;;;;;9.50;8.43;;;13.60;99.90;;;;;;5016650;28;20034;-74
2023/05/16 08:55:21;;;;;;;10.60;8.82;;;13.70;99.90;;;;;;5008184;28;20036;-74
2023/05/16 08:57:49;;;;;;;11.75;8.63;;;13.70;99.90;;;;;;5013339;28;20037;-74
2023/05/16 09:00:18;;;;;;;13.35;9.18;;;13.70;99.90;;;;;;5010076;28;20121;-74
2023/05/16 09:02:44;;;;;;;10.65;9.55;;;13.70;99.90;;;;;;5011796;28;20050;-75
2023/05/16 09:05:13;;;;;;;12.90;8.85;;;13.80;99.90;;;;;;5009826;28;20501;-74
2023/05/16 09:07:39;;;;;;;10.73;8.90;;;13.80;99.90;;;;;;5011421;28;20038;-75
2023/05/16 09:10:06;;;;;;;11.52;8.63;;;13.90;99.90;;;;;;5011738;28;20060;-74
2023/05/16 09:12:32;;;;;;;12.10;9.20;;;13.90;99.90;;;;;;5012614;28;20038;-74
2023/05/16 09:15:03;;;;;;;13.48;9.82;;;14.00;99.90;;;;;;5009822;28;20033;-75
2023/05/16 09:17:41;;;;;;;10.88;8.95;;;14.00;99.90;;;;;;5011494;28;20112;-74
2023/05/16 09:20:18;;;;;;;10.60;8.43;;;14.00;99.90;;;;;;4996316;28;20041;-74
2023/05/16 09:22:55;;;;;;;11.88;9.50;;;13.90;99.90;;;;;;5011649;28;20446;-75
2023/05/16 09:25:23;;;;;;;11.48;9.07;;;13.80;99.90;;;;;;5014018;28;20034;-74
2023/05/16 09:27:56;;;;;;;12.63;9.40;;;13.70;99.90;;;;;;5013562;28;20057;-74
2023/05/16 09:30:26;;;;;;;11.25;8.77;;;13.70;99.90;;;;;;5012100;28;20106;-74
2023/05/16 09:32:52;;;;;;;12.43;9.23;;;13.80;99.90;;;;;;5007966;28;20129;-74
2023/05/16 09:35:20;;;;;;;12.93;9.63;;;13.90;99.90;;;;;;5013103;28;20478;-75
2023/05/16 09:37:47;;;;;;;12.88;9.30;;;14.00;99.90;;;;;;5012105;28;20029;-74
2023/05/16 09:40:13;;;;;;;12.23;9.02;;;14.10;99.90;;;;;;5012766;28;20056;-75
2023/05/16 09:42:40;;;;;;;12.27;9.80;;;14.20;99.90;;;;;;5016342;28;20073;-75
2023/05/16 09:45:06;;;;;;;12.10;9.82;;;14.40;99.90;;;;;;5013288;28;20034;-75
2023/05/16 09:47:32;;;;;;;11.05;8.52;;;14.50;99.90;;;;;;5005958;28;20056;-74
2023/05/16 09:49:59;;;;;;;15.15;9.45;;;14.70;99.90;;;;;;5012876;28;20054;-75
2023/05/16 09:52:29;;;;;;;22.80;10.35;;;14.90;99.90;;;;;;5014152;28;20030;-74
2023/05/16 09:54:54;;;;;;;12.27;10.20;;;15.00;99.90;;;;;;5011947;28;20379;-74
2023/05/16 09:57:20;;;;;;;13.48;10.20;;;15.10;99.90;;;;;;5015580;28;20033;-74
2023/05/16 09:59:47;;;;;;;13.43;9.80;;;15.20;99.90;;;;;;5010957;28;20120;-75
2023/05/16 10:02:13;;;;;;;13.38;9.65;;;15.40;99.90;;;;;;5012552;28;20034;-75
2023/05/16 10:04:39;;;;;;;13.10;9.90;;;15.30;99.90;;;;;;5015444;28;20095;-74
2023/05/16 10:07:05;;;;;;;11.20;8.52;;;15.10;99.90;;;;;;5016893;28;20062;-74
2023/05/16 10:09:33;;;;;;;11.27;8.63;;;15.00;99.90;;;;;;5014620;28;20040;-74
2023/05/16 10:12:03;;;;;;;10.85;8.40;;;15.10;99.90;;;;;;5011287;28;20048;-75
2023/05/16 10:14:32;;;;;;;9.57;8.30;;;15.00;99.90;;;;;;5015595;28;20049;-74
2023/05/16 10:16:59;;;;;;;10.45;8.55;;;15.00;99.90;;;;;;4992272;28;20030;-75
2023/05/16 10:19:26;;;;;;;9.20;8.23;;;15.10;99.90;;;;;;5014496;28;20092;-75
2023/05/16 10:21:58;;;;;;;12.27;8.75;;;15.00;99.90;;;;;;5007293;28;20050;-75
2023/05/16 10:24:30;;;;;;;11.65;8.63;;;15.00;99.90;;;;;;5015944;28;20022;-74
2023/05/16 10:26:56;;;;;;;9.27;8.07;;;14.90;99.90;;;;;;5016865;28;20036;-75
2023/05/16 10:29:23;;;;;;;11.38;9.40;;;14.80;99.90;;;;;;5010727;28;20042;-75
2023/05/16 10:31:49;;;;;;;11.02;9.00;;;14.70;99.90;;;;;;5004157;28;20049;-74
2023/05/16 10:34:16;;;;;;;9.75;8.70;;;14.50;99.90;;;;;;5009136;28;20022;-75
2023/05/16 10:36:45;;;;;;;10.35;8.45;;;14.40;99.90;;;;;;5015464;28;20041;-75
2023/05/16 10:39:12;;;;;;;13.50;9.93;;;14.60;99.90;;;;;;5014046;28;20034;-74
2023/05/16 10:41:38;;;;;;;11.73;9.18;;;14.90;99.90;;;;;;5004265;28;20025;-75
2023/05/16 10:44:18;;;;;;;10.85;8.77;;;14.90;99.90;;;;;;4998497;28;20033;-74
2023/05/16 10:46:47;;;;;;;12.27;9.38;;;14.80;99.90;;;;;;4992021;28;20065;-75
2023/05/16 10:49:23;;;;;;;11.00;8.80;;;14.90;99.90;;;;;;5007459;28;20113;-75
2023/05/16 10:52:04;;;;;;;9.80;8.38;;;14.90;99.90;;;;;;5012259;28;20050;-74
2023/05/16 10:54:34;;;;;;;12.20;8.32;;;14.90;99.90;;;;;;5011737;28;20516;-73
2023/05/16 10:57:04;;;;;;;10.07;8.20;;;14.80;99.90;;;;;;5011514;28;20057;-74
2023/05/16 10:59:40;;;;;;;12.43;9.15;;;14.90;99.90;;;;;;5013716;28;20042;-74
2023/05/16 11:02:24;;;;;;;10.88;8.70;;;14.90;99.90;;;;;;5010849;28;20052;-74
2023/05/16 11:04:53;;;;;;;10.35;8.65;;;14.90;99.90;;;;;;5004830;28;20033;-74
2023/05/16 11:07:21;;;;;;;10.88;8.57;;;14.70;99.90;;;;;;5012034;28;20034;-74
2023/05/16 11:10:03;;;;;;;11.25;9.18;;;14.60;99.90;;;;;;5013291;28;20041;-73
2023/05/16 11:12:47;;;;;;;10.38;8.13;;;14.50;99.90;;;;;;5011704;28;20042;-74
2023/05/16 11:15:24;;;;;;;9.57;8.10;;;14.50;99.90;;;;;;5009479;28;20040;-74
2023/05/16 11:17:50;;;;;;;10.90;8.25;;;14.40;99.90;;;;;;5005866;28;20553;-74
2023/05/16 11:20:27;;;;;;;11.93;8.50;;;14.30;99.90;;;;;;5011406;28;20041;-75
2023/05/16 11:23:21;;;;;;;12.07;9.18;;;14.20;99.90;;;;;;5009942;28;20121;-74
2023/05/16 11:26:05;;;;;;;10.90;8.82;;;14.10;99.90;;;;;;5011607;28;20132;-74
2023/05/16 11:28:31;;;;;;;10.63;9.15;;;14.00;99.90;;;;;;4991511;28;20049;-75
2023/05/16 11:30:58;;;;;;;11.88;9.40;;;13.90;99.90;;;;;;5007351;28;20068;-74
2023/05/16 11:33:24;;;;;;;12.10;9.77;;;13.90;99.90;;;;;;5013077;28;20025;-74
2023/05/16 11:36:21;;;;;;;12.13;10.27;;;13.90;99.90;;;;;;5008318;28;20030;-74
2023/05/16 11:38:46;;;;;;;12.10;9.10;;;13.90;99.90;;;;;;4996860;28;20073;-75
2023/05/16 11:41:14;;;;;;;12.45;9.30;;;13.80;99.90;;;;;;5010191;28;20044;-74
2023/05/16 11:43:42;;;;;;;10.73;9.50;;;13.80;99.90;;;;;;4995623;28;20702;-74
2023/05/16 11:46:15;;;;;;;13.57;10.25;;;13.60;99.90;;;;;;5012597;28;20108;-73
2023/05/16 11:48:45;;;;;;;11.45;9.45;;;13.70;99.90;;;;;;5010116;28;20050;-74
2023/05/16 11:51:10;;;;;;;14.57;10.25;;;13.70;99.90;;;;;;5009478;28;20558;-73
2023/05/16 11:53:37;;;;;;;11.65;9.50;;;13.70;99.90;;;;;;5010741;28;20045;-73
2023/05/16 11:56:02;;;;;;;11.25;9.55;;;13.80;99.90;;;;;;5006962;28;20773;-74
2023/05/16 11:58:28;;;;;;;18.55;9.43;;;13.80;99.90;;;;;;4989629;28;20117;-73
2023/05/16 12:01:05;;;;;;;13.07;9.85;;;13.90;99.90;;;;;;5010845;28;20041;-73
2023/05/16 12:03:33;;;;;;;13.35;10.77;;;14.00;99.90;;;;;;4994933;28;20026;-72
2023/05/16 12:05:59;;;;;;;;;;;13.80;99.90;;;;;;5010511;28;20116;-72
2023/05/16 12:08:25;;;;;;;14.57;11.40;;;13.50;99.90;;;;;;5008813;28;19944;-72
2023/05/16 12:10:52;;;;;;;17.70;12.10;;;13.40;99.90;;;;;;5012697;28;20072;-73
2023/05/16 12:13:23;;;;;;;17.23;11.52;;;13.30;99.90;;;;;;4995753;28;20030;-73
2023/05/16 12:15:50;;;;;;;15.55;12.18;;;13.20;99.90;;;;;;5012646;28;20061;-73
2023/05/16 12:18:16;;;;;;;14.77;10.85;;;13.20;99.90;;;;;;5011185;28;20394;-75
2023/05/16 12:20:43;;;;;;;14.77;11.45;;;13.20;99.90;;;;;;5012035;28;20089;-75
2023/05/16 12:23:13;;;;;;;15.82;11.43;;;13.20;99.90;;;;;;5014435;28;20042;-74
2023/05/16 12:25:45;;;;;;;18.58;11.52;;;13.00;99.90;;;;;;5017462;28;20038;-73
2023/05/16 12:28:13;;;;;;;18.17;12.63;;;12.90;99.90;;;;;;5014069;28;20034;-73
2023/05/16 12:30:43;;;;;;;;;;;12.80;99.90;;;;;;5012084;28;20493;-74
2023/05/16 12:33:12;;;;;;;17.60;11.82;;;12.50;99.90;;;;;;5012924;28;20262;-73
2023/05/16 12:35:40;;;;;;;19.30;12.85;;;12.50;99.90;;;;;;5012539;28;20406;-73
2023/05/16 12:38:11;;;;;;;12.07;7.85;;;12.40;99.90;;;;;;5016760;28;20061;-73
2023/05/16 12:40:38;;;;;;;8.25;6.63;;;12.20;99.90;;;;;;5013409;28;20030;-73
2023/05/16 12:43:21;;;;;;;10.63;7.50;;;12.10;99.90;;;;;;5013094;28;20050;-74
2023/05/16 12:45:51;;;;;;;12.02;6.80;;;12.00;99.90;;;;;;5013853;28;20088;-73
2023/05/16 12:48:17;;;;;;;7.10;6.30;;;12.10;99.90;;;;;;5009598;28;20041;-74
2023/05/16 12:50:45;;;;;;;10.38;5.78;;;12.10;99.90;;;;;;4997167;28;20281;-71
2023/05/16 12:53:15;;;;;;;11.48;6.50;;;11.90;99.90;;;;;;5012349;28;20105;-70